createdAt,value
2023-08-14T00:00:28.915Z,38.72461
2023-08-14T00:00:58.919Z,38.89063
2023-08-14T00:01:28.928Z,39.12402
2023-08-14T00:01:58.909Z,38.90234
2023-08-14T00:02:28.922Z,39.45605
2023-08-14T00:02:59.002Z,38.66797
2023-08-14T00:03:28.985Z,38.96777
2023-08-14T00:03:58.976Z,38.80176
2023-08-14T00:04:28.910Z,38.39063
2023-08-14T00:04:58.911Z,39.0332
2023-08-14T00:05:28.912Z,39.50977
2023-08-14T00:05:58.922Z,38.5791
2023-08-14T00:06:28.916Z,38.5127
2023-08-14T00:06:58.921Z,38.60156
2023-08-14T00:07:28.927Z,38.5791
2023-08-14T00:07:58.925Z,38.5459
2023-08-14T00:08:28.914Z,38.6123
2023-08-14T00:08:58.922Z,38.42285
2023-08-14T00:09:28.913Z,38.2666
2023-08-14T00:09:58.917Z,38.44336
2023-08-14T00:10:28.916Z,38.54297
2023-08-14T00:10:58.929Z,38.99707
2023-08-14T00:11:28.915Z,39.16309
2023-08-14T00:11:58.915Z,39.16309
2023-08-14T00:12:28.919Z,39.27246
2023-08-14T00:12:58.930Z,39.42676
2023-08-14T00:13:28.916Z,39.37207
2023-08-14T00:13:58.932Z,39.61523
2023-08-14T00:14:28.922Z,39.48145
2023-08-14T00:14:58.920Z,39.2041
2023-08-14T00:15:28.974Z,39.14941
2023-08-14T00:15:58.978Z,39.57031
2023-08-14T00:16:28.919Z,38.96094
2023-08-14T00:16:58.928Z,39.51563
2023-08-14T00:17:28.941Z,40.20313
2023-08-14T00:17:58.962Z,39.60547
2023-08-14T00:18:28.971Z,39.72754
2023-08-14T00:18:58.943Z,39.08398
2023-08-14T00:19:28.917Z,39.54004
2023-08-14T00:19:58.928Z,39.1084
2023-08-14T00:20:28.922Z,39.39551
2023-08-14T00:20:58.919Z,39.15332
2023-08-14T00:21:28.925Z,39.39746
2023-08-14T00:21:58.917Z,39.34277
2023-08-14T00:22:28.919Z,39.07617
2023-08-14T00:22:58.920Z,38.51074
2023-08-14T00:23:28.924Z,38.80957
2023-08-14T00:23:58.931Z,39.1084
2023-08-14T00:24:28.931Z,39.74121
2023-08-14T00:24:58.928Z,38.75391
2023-08-14T00:25:28.930Z,38.875
2023-08-14T00:25:58.926Z,38.85254
2023-08-14T00:26:28.928Z,39.37402
2023-08-14T00:26:58.923Z,38.69727
2023-08-14T00:27:28.922Z,38.27441
2023-08-14T00:27:58.924Z,38.11914
2023-08-14T00:28:28.956Z,38.47363
2023-08-14T00:28:58.962Z,37.92871
2023-08-14T00:29:28.926Z,37.90625
2023-08-14T00:29:58.925Z,37.68359
2023-08-14T00:30:28.925Z,37.62793
2023-08-14T00:30:58.943Z,38.24805
2023-08-14T00:31:29.023Z,37.44824
2023-08-14T00:31:58.924Z,38.00098
2023-08-14T00:32:28.925Z,37.66699
2023-08-14T00:32:58.989Z,38.06543
2023-08-14T00:33:28.932Z,37.9873
2023-08-14T00:33:58.929Z,37.85352
2023-08-14T00:34:28.924Z,37.50977
2023-08-14T00:34:58.926Z,37.63184
2023-08-14T00:35:28.950Z,37.71973
2023-08-14T00:35:58.933Z,37.50879
2023-08-14T00:36:28.924Z,37.56348
2023-08-14T00:36:58.924Z,37.77246
2023-08-14T00:37:28.926Z,37.9834
2023-08-14T00:37:58.927Z,38.43652
2023-08-14T00:38:28.932Z,37.85938
2023-08-14T00:38:58.944Z,37.86816
2023-08-14T00:39:28.932Z,38.23438
2023-08-14T00:39:58.938Z,37.80078
2023-08-14T00:40:28.937Z,37.83398
2023-08-14T00:40:58.934Z,37.81055
2023-08-14T00:41:28.931Z,38.64063
2023-08-14T00:41:58.934Z,38.97266
2023-08-14T00:42:28.932Z,38.34082
2023-08-14T00:42:58.938Z,37.96387
2023-08-14T00:43:28.926Z,37.96289
2023-08-14T00:43:58.950Z,38.72754
2023-08-14T00:44:28.926Z,38.47266
2023-08-14T00:44:58.928Z,38.38379
2023-08-14T00:45:40.523Z,38.67285
2023-08-14T00:46:00.136Z,38.25195
2023-08-14T00:46:28.970Z,38.50684
2023-08-14T00:46:58.928Z,38.22852
2023-08-14T00:47:29.013Z,38.3623
2023-08-14T00:47:58.986Z,38.27344
2023-08-14T00:48:28.938Z,37.88477
2023-08-14T00:48:58.966Z,38.9043
2023-08-14T00:49:28.928Z,37.92773
2023-08-14T00:49:58.947Z,38.09375
2023-08-14T00:50:28.943Z,37.88379
2023-08-14T00:50:58.935Z,37.89453
2023-08-14T00:51:28.929Z,38.18164
2023-08-14T00:51:58.955Z,39.03516
2023-08-14T00:52:28.935Z,38.36914
2023-08-14T00:52:58.941Z,38.41309
2023-08-14T00:53:28.956Z,38.13477
2023-08-14T00:53:58.947Z,38.25684
2023-08-14T00:54:28.940Z,37.95605
2023-08-14T00:54:58.940Z,38.24414
2023-08-14T00:55:28.947Z,38.08887
2023-08-14T00:55:58.941Z,37.91016
2023-08-14T00:56:28.939Z,38.14355
2023-08-14T00:56:58.932Z,38.45313
2023-08-14T00:57:28.935Z,38.51855
2023-08-14T00:57:58.943Z,38.75098
2023-08-14T00:58:28.941Z,38.96191
2023-08-14T00:58:58.950Z,38.90625
2023-08-14T00:59:28.937Z,38.77246
2023-08-14T00:59:58.938Z,39.30566
2023-08-14T01:00:28.992Z,39.6377
2023-08-14T01:00:58.997Z,38.88477
2023-08-14T01:01:28.937Z,38.29785
2023-08-14T01:01:58.972Z,38.8418
2023-08-14T01:02:28.981Z,38.10938
2023-08-14T01:02:59.055Z,38.25391
2023-08-14T01:03:28.999Z,38.58594
2023-08-14T01:03:58.942Z,39.5498
2023-08-14T01:04:28.945Z,39.28418
2023-08-14T01:04:58.942Z,39.40527
2023-08-14T01:05:28.940Z,39.05078
2023-08-14T01:05:58.951Z,39.08398
2023-08-14T01:06:28.946Z,38.91699
2023-08-14T01:06:58.940Z,39.33789
2023-08-14T01:07:28.945Z,39.11719
2023-08-14T01:07:58.937Z,39.15039
2023-08-14T01:08:28.941Z,38.74023
2023-08-14T01:08:58.938Z,39.34766
2023-08-14T01:09:28.943Z,38.81641
2023-08-14T01:09:58.963Z,38.94922
2023-08-14T01:10:28.948Z,39.53809
2023-08-14T01:10:58.956Z,38.9502
2023-08-14T01:11:28.948Z,38.69531
2023-08-14T01:11:58.948Z,38.66211
2023-08-14T01:12:28.943Z,38.28516
2023-08-14T01:12:58.944Z,38.56152
2023-08-14T01:13:28.945Z,38.75
2023-08-14T01:13:58.957Z,39.07129
2023-08-14T01:14:28.952Z,38.9502
2023-08-14T01:14:58.941Z,39.35938
2023-08-14T01:15:28.945Z,38.64063
2023-08-14T01:15:58.971Z,38.54004
2023-08-14T01:16:29.081Z,39.07031
2023-08-14T01:16:58.950Z,38.78223
2023-08-14T01:17:30.960Z,38.92578
2023-08-14T01:18:00.203Z,39.1582
2023-08-14T01:18:28.947Z,40.08887
2023-08-14T01:18:58.950Z,39.1582
2023-08-14T01:19:28.943Z,39.09082
2023-08-14T01:19:58.946Z,39.21289
2023-08-14T01:20:28.944Z,39.54492
2023-08-14T01:20:58.947Z,39.99902
2023-08-14T01:21:28.973Z,39.41211
2023-08-14T01:21:59.009Z,39.72168
2023-08-14T01:22:29.033Z,40.17578
2023-08-14T01:22:58.947Z,39.5
2023-08-14T01:23:28.945Z,39.52246
2023-08-14T01:23:58.948Z,38.71387
2023-08-14T01:24:28.953Z,38.6582
2023-08-14T01:24:58.953Z,38.52441
2023-08-14T01:25:28.953Z,38.66895
2023-08-14T01:25:58.955Z,39.31055
2023-08-14T01:26:28.955Z,39.30957
2023-08-14T01:26:58.950Z,39.01953
2023-08-14T01:27:28.962Z,39.01953
2023-08-14T01:27:58.949Z,39.08594
2023-08-14T01:28:28.954Z,38.84277
2023-08-14T01:29:00.253Z,39.09766
2023-08-14T01:29:30.012Z,39.38574
2023-08-14T01:29:58.966Z,39.35352
2023-08-14T01:30:29.022Z,39.14355
2023-08-14T01:30:59.047Z,39.39941
2023-08-14T01:31:28.951Z,39.62109
2023-08-14T01:31:58.957Z,39.42285
2023-08-14T01:32:28.960Z,39.36719
2023-08-14T01:32:59.057Z,38.85742
2023-08-14T01:33:28.962Z,39.55664
2023-08-14T01:33:58.958Z,38.78125
2023-08-14T01:34:28.953Z,38.93652
2023-08-14T01:34:58.959Z,39.3252
2023-08-14T01:35:28.960Z,40.06836
2023-08-14T01:35:58.956Z,39.3916
2023-08-14T01:36:28.968Z,39.25879
2023-08-14T01:36:58.954Z,39.38086
2023-08-14T01:37:28.956Z,39.42578
2023-08-14T01:37:58.954Z,39.79297
2023-08-14T01:38:28.956Z,40.07031
2023-08-14T01:38:58.954Z,40.03809
2023-08-14T01:39:28.959Z,38.82031
2023-08-14T01:39:58.959Z,38.88672
2023-08-14T01:40:29.021Z,39.33105
2023-08-14T01:40:58.959Z,39.35254
2023-08-14T01:41:28.977Z,40.37305
2023-08-14T01:41:58.973Z,39.85254
2023-08-14T01:42:28.956Z,38.87695
2023-08-14T01:42:58.968Z,38.63281
2023-08-14T01:43:28.954Z,38.02246
2023-08-14T01:43:58.982Z,38.25488
2023-08-14T01:44:28.958Z,37.92188
2023-08-14T01:44:58.959Z,38.56543
2023-08-14T01:45:28.964Z,38.55371
2023-08-14T01:45:59.026Z,38.13379
2023-08-14T01:46:28.982Z,39.25391
2023-08-14T01:46:58.962Z,37.53711
2023-08-14T01:47:28.973Z,37.69238
2023-08-14T01:47:59.000Z,38.02637
2023-08-14T01:48:28.959Z,38.92578
2023-08-14T01:48:58.959Z,37.8623
2023-08-14T01:49:28.957Z,37.6748
2023-08-14T01:49:58.958Z,37.69629
2023-08-14T01:50:28.969Z,38.04199
2023-08-14T01:50:58.968Z,37.99805
2023-08-14T01:51:28.964Z,38.94238
2023-08-14T01:51:58.968Z,37.97949
2023-08-14T01:52:28.959Z,37.66992
2023-08-14T01:52:58.961Z,38.11523
2023-08-14T01:53:28.961Z,38.74805
2023-08-14T01:53:58.960Z,37.88379
2023-08-14T01:54:28.958Z,37.62793
2023-08-14T01:54:58.960Z,37.86133
2023-08-14T01:55:28.962Z,38.01465
2023-08-14T01:55:58.992Z,38.33594
2023-08-14T01:56:28.972Z,37.76953
2023-08-14T01:56:58.965Z,37.86914
2023-08-14T01:57:28.968Z,37.52441
2023-08-14T01:57:58.960Z,38.42188
2023-08-14T01:58:28.962Z,37.73535
2023-08-14T01:58:58.961Z,37.31348
2023-08-14T01:59:28.967Z,37.84668
2023-08-14T01:59:58.968Z,37.51465
2023-08-14T02:00:28.965Z,37.39355
2023-08-14T02:00:58.965Z,37.23828
2023-08-14T02:01:28.982Z,37.15039
2023-08-14T02:01:58.963Z,37.38281
2023-08-14T02:02:29.010Z,37.43945
2023-08-14T02:02:59.111Z,37.54004
2023-08-14T02:03:29.079Z,37.76172
2023-08-14T02:03:59.061Z,38.15039
2023-08-14T02:04:28.971Z,37.91797
2023-08-14T02:04:58.968Z,37.34277
2023-08-14T02:05:28.976Z,37.32129
2023-08-14T02:05:58.984Z,37.44434
2023-08-14T02:06:28.965Z,37.36816
2023-08-14T02:06:58.966Z,37.23535
2023-08-14T02:07:28.964Z,37.61426
2023-08-14T02:07:59.040Z,37.52734
2023-08-14T02:08:28.967Z,37.66016
2023-08-14T02:08:58.973Z,37.50488
2023-08-14T02:09:28.965Z,37.2832
2023-08-14T02:09:58.974Z,37.41602
2023-08-14T02:10:28.968Z,37.17285
2023-08-14T02:10:58.968Z,37.33887
2023-08-14T02:11:28.973Z,37.3623
2023-08-14T02:11:58.985Z,37.35156
2023-08-14T02:12:28.977Z,37.62109
2023-08-14T02:12:58.980Z,37.43457
2023-08-14T02:13:28.984Z,37.75879
2023-08-14T02:13:58.970Z,37.2168
2023-08-14T02:14:28.969Z,37.28516
2023-08-14T02:14:58.985Z,37.33203
2023-08-14T02:15:28.974Z,37.71289
2023-08-14T02:15:58.994Z,37.64746
2023-08-14T02:16:29.031Z,37.32715
2023-08-14T02:16:58.972Z,37.42773
2023-08-14T02:17:29.004Z,37.53906
2023-08-14T02:17:59.060Z,37.97168
2023-08-14T02:18:28.976Z,37.59473
2023-08-14T02:18:58.977Z,38.24121
2023-08-14T02:19:28.980Z,37.35449
2023-08-14T02:19:58.985Z,37.58984
2023-08-14T02:20:28.980Z,37.3125
2023-08-14T02:20:58.976Z,37.41211
2023-08-14T02:21:28.975Z,37.48047
2023-08-14T02:21:58.998Z,38.16992
2023-08-14T02:22:28.979Z,37.53906
2023-08-14T02:22:58.979Z,37.875
2023-08-14T02:23:28.981Z,37.50977
2023-08-14T02:23:58.978Z,37.63184
2023-08-14T02:24:28.978Z,38.01855
2023-08-14T02:24:58.982Z,37.99609
2023-08-14T02:25:28.981Z,37.62891
2023-08-14T02:25:58.996Z,37.68457
2023-08-14T02:26:28.981Z,37.37305
2023-08-14T02:26:58.989Z,37.08398
2023-08-14T02:27:28.981Z,37.11816
2023-08-14T02:27:58.999Z,37.43945
2023-08-14T02:28:28.981Z,37.08301
2023-08-14T02:28:58.997Z,37.63672
2023-08-14T02:29:28.983Z,38.78906
2023-08-14T02:29:58.981Z,38.88574
2023-08-14T02:30:28.979Z,38.66211
2023-08-14T02:30:59.015Z,38.61816
2023-08-14T02:31:29.006Z,39.05078
2023-08-14T02:31:58.981Z,38.03809
2023-08-14T02:32:28.987Z,37.23828
2023-08-14T02:32:59.016Z,38.10449
2023-08-14T02:33:28.983Z,38.30371
2023-08-14T02:33:58.980Z,37.75098
2023-08-14T02:34:28.983Z,37.11914
2023-08-14T02:34:58.983Z,37.10059
2023-08-14T02:35:28.995Z,37.11426
2023-08-14T02:35:58.986Z,37.46094
2023-08-14T02:36:28.985Z,37.31836
2023-08-14T02:36:58.984Z,37.23242
2023-08-14T02:37:28.987Z,37.71289
2023-08-14T02:37:58.989Z,37.80566
2023-08-14T02:38:28.984Z,37.69824
2023-08-14T02:38:58.982Z,37.32324
2023-08-14T02:39:28.993Z,37.80273
2023-08-14T02:39:59.003Z,37.37109
2023-08-14T02:40:28.990Z,36.69629
2023-08-14T02:40:59.003Z,36.44141
2023-08-14T02:41:28.982Z,36.84375
2023-08-14T02:41:58.991Z,36.61035
2023-08-14T02:42:29.004Z,36.65723
2023-08-14T02:42:58.992Z,37.61426
2023-08-14T02:43:28.993Z,37.68164
2023-08-14T02:43:59.027Z,37.50488
2023-08-14T02:44:28.987Z,36.91602
2023-08-14T02:44:58.990Z,36.73828
2023-08-14T02:45:29.015Z,36.43945
2023-08-14T02:45:59.052Z,35.97559
2023-08-14T02:46:28.993Z,35.56641
2023-08-14T02:46:58.986Z,35.46875
2023-08-14T02:47:29.016Z,35.52832
2023-08-14T02:47:59.015Z,36.35645
2023-08-14T02:48:29.016Z,35.69336
2023-08-14T02:48:58.985Z,35.15234
2023-08-14T02:49:28.989Z,35.73633
2023-08-14T02:49:58.993Z,35.0625
2023-08-14T02:50:29.001Z,35.03418
2023-08-14T02:50:59.016Z,35.48438
2023-08-14T02:51:28.988Z,34.57617
2023-08-14T02:51:59.017Z,34.64746
2023-08-14T02:52:28.988Z,34.2373
2023-08-14T02:52:58.990Z,34.82031
2023-08-14T02:53:28.988Z,34.80176
2023-08-14T02:53:58.991Z,34.18066
2023-08-14T02:54:28.988Z,33.97363
2023-08-14T02:54:58.985Z,34.37793
2023-08-14T02:55:28.993Z,34.14844
2023-08-14T02:55:59.015Z,34.53125
2023-08-14T02:56:28.990Z,34.35645
2023-08-14T02:56:59.038Z,33.91504
2023-08-14T02:57:28.994Z,34.90039
2023-08-14T02:57:58.995Z,34.78125
2023-08-14T02:58:28.992Z,33.75879
2023-08-14T02:58:58.995Z,32.86914
2023-08-14T02:59:28.988Z,32.93945
2023-08-14T02:59:59.008Z,33.02051
2023-08-14T03:00:28.989Z,32.9668
2023-08-14T03:00:59.082Z,32.95898
2023-08-14T03:01:29.052Z,32.83984
2023-08-14T03:01:59.007Z,32.85449
2023-08-14T03:02:29.073Z,32.72461
2023-08-14T03:02:59.049Z,33.10645
2023-08-14T03:03:29.008Z,32.20215
2023-08-14T03:03:59.044Z,32.54785
2023-08-14T03:04:28.992Z,32.66992
2023-08-14T03:04:58.989Z,32.38086
2023-08-14T03:05:28.995Z,32.51563
2023-08-14T03:05:59.018Z,32.24902
2023-08-14T03:06:28.991Z,31.91797
2023-08-14T03:06:59.002Z,32.16602
2023-08-14T03:07:29.004Z,32.17969
2023-08-14T03:07:58.994Z,32.04785
2023-08-14T03:08:28.998Z,31.85938
2023-08-14T03:08:59.012Z,31.79688
2023-08-14T03:09:29.005Z,33.12207
2023-08-14T03:09:59.002Z,31.29199
2023-08-14T03:10:29.002Z,31.72754
2023-08-14T03:10:58.995Z,31.7168
2023-08-14T03:11:28.999Z,31.74023
2023-08-14T03:11:59.007Z,31.94336
2023-08-14T03:12:29.007Z,31.89941
2023-08-14T03:12:59.002Z,32.2793
2023-08-14T03:13:29.000Z,33.11719
2023-08-14T03:13:59.014Z,32.72461
2023-08-14T03:14:29.008Z,32.31152
2023-08-14T03:14:59.005Z,31.65332
2023-08-14T03:15:29.002Z,31.95898
2023-08-14T03:15:58.998Z,32.06641
2023-08-14T03:16:29.031Z,31.80273
2023-08-14T03:16:59.050Z,31.39355
2023-08-14T03:17:29.117Z,31.56543
2023-08-14T03:17:59.060Z,31.41211
2023-08-14T03:18:28.998Z,31.59375
2023-08-14T03:18:59.006Z,31.53027
2023-08-14T03:19:29.107Z,32.1709
2023-08-14T03:19:59.058Z,31.99609
2023-08-14T03:20:29.002Z,31.75293
2023-08-14T03:20:58.997Z,31.03906
2023-08-14T03:21:29.007Z,31.12012
2023-08-14T03:21:59.006Z,31.51465
2023-08-14T03:22:29.017Z,32.05469
2023-08-14T03:22:59.000Z,32.85156
2023-08-14T03:23:29.008Z,32.03516
2023-08-14T03:23:59.015Z,31.4082
2023-08-14T03:24:28.999Z,32.2627
2023-08-14T03:24:59.017Z,31.5918
2023-08-14T03:25:29.007Z,31.93066
2023-08-14T03:25:59.005Z,32.80566
2023-08-14T03:26:29.007Z,32.66895
2023-08-14T03:26:59.003Z,32.70898
2023-08-14T03:27:29.021Z,32.56055
2023-08-14T03:27:59.046Z,32.34863
2023-08-14T03:28:29.011Z,31.44043
2023-08-14T03:28:59.020Z,31.69824
2023-08-14T03:29:29.014Z,31.77734
2023-08-14T03:29:59.026Z,32.02441
2023-08-14T03:30:29.081Z,31.85742
2023-08-14T03:30:59.128Z,31.04785
2023-08-14T03:31:29.040Z,31.10156
2023-08-14T03:31:59.011Z,31.18945
2023-08-14T03:32:29.041Z,30.88574
2023-08-14T03:32:59.086Z,30.88574
2023-08-14T03:33:29.008Z,30.69727
2023-08-14T03:33:59.014Z,30.94434
2023-08-14T03:34:29.005Z,30.54102
2023-08-14T03:34:59.015Z,30.94629
2023-08-14T03:35:29.012Z,30.25391
2023-08-14T03:35:59.009Z,30.75
2023-08-14T03:36:29.008Z,31.13379
2023-08-14T03:36:59.008Z,30.31738
2023-08-14T03:37:29.015Z,30.65527
2023-08-14T03:37:59.006Z,31.77344
2023-08-14T03:38:29.013Z,32.30664
2023-08-14T03:38:59.030Z,32.38184
2023-08-14T03:39:29.011Z,32.24609
2023-08-14T03:39:59.015Z,31.7207
2023-08-14T03:40:29.021Z,31.51953
2023-08-14T03:40:59.056Z,31.38672
2023-08-14T03:41:29.011Z,31.54688
2023-08-14T03:41:59.013Z,31.60645
2023-08-14T03:42:29.016Z,31.50977
2023-08-14T03:42:59.024Z,31.09961
2023-08-14T03:43:29.028Z,31.41602
2023-08-14T03:43:59.016Z,31.73145
2023-08-14T03:44:29.018Z,31.76563
2023-08-14T03:44:59.024Z,32.46875
2023-08-14T03:45:29.021Z,32.53027
2023-08-14T03:45:59.023Z,32.14453
2023-08-14T03:46:29.041Z,31.91992
2023-08-14T03:46:59.015Z,31.83301
2023-08-14T03:47:29.033Z,31.44434
2023-08-14T03:47:59.034Z,31.46191
2023-08-14T03:48:29.022Z,31.28711
2023-08-14T03:48:59.022Z,31.7373
2023-08-14T03:49:29.014Z,31.68457
2023-08-14T03:49:59.011Z,31.8457
2023-08-14T03:50:29.013Z,32.39941
2023-08-14T03:50:59.021Z,31.69531
2023-08-14T03:51:29.017Z,31.36621
2023-08-14T03:51:59.018Z,31.52539
2023-08-14T03:52:29.029Z,30.71094
2023-08-14T03:52:59.013Z,31.05566
2023-08-14T03:53:29.031Z,29.83105
2023-08-14T03:53:59.025Z,30.81836
2023-08-14T03:54:29.020Z,30.01855
2023-08-14T03:54:59.027Z,31.0957
2023-08-14T03:55:29.018Z,32.16992
2023-08-14T03:55:59.046Z,32.15918
2023-08-14T03:56:29.041Z,32.3623
2023-08-14T03:56:59.019Z,33.39551
2023-08-14T03:57:29.021Z,32.5625
2023-08-14T03:57:59.038Z,32.22461
2023-08-14T03:58:29.068Z,32.41602
2023-08-14T03:58:59.023Z,32.52539
2023-08-14T03:59:29.025Z,33.35742
2023-08-14T03:59:59.041Z,33.29395
2023-08-14T04:00:29.027Z,33.9375
2023-08-14T04:00:59.041Z,33.39453
2023-08-14T04:01:29.058Z,33.69141
2023-08-14T04:01:59.074Z,33.66406
2023-08-14T04:02:29.022Z,33.91602
2023-08-14T04:02:59.073Z,34.9082
2023-08-14T04:03:29.109Z,34.4209
2023-08-14T04:03:59.177Z,33.49707
2023-08-14T04:04:29.024Z,33.55664
2023-08-14T04:04:59.036Z,33.24805
2023-08-14T04:05:29.026Z,34.07129
2023-08-14T04:05:59.023Z,34.08789
2023-08-14T04:06:29.048Z,34.21484
2023-08-14T04:06:59.101Z,34.67969
2023-08-14T04:07:29.026Z,34.79688
2023-08-14T04:07:59.060Z,34.83691
2023-08-14T04:08:29.038Z,35.06738
2023-08-14T04:08:59.042Z,35.05273
2023-08-14T04:09:29.029Z,35.4043
2023-08-14T04:09:59.021Z,35.26563
2023-08-14T04:10:29.027Z,35.27148
2023-08-14T04:10:59.029Z,35.44629
2023-08-14T04:11:29.024Z,35.55469
2023-08-14T04:11:59.033Z,35.72949
2023-08-14T04:12:29.024Z,35.82617
2023-08-14T04:12:59.441Z,36.34766
2023-08-14T04:13:29.030Z,36.43066
2023-08-14T04:13:59.031Z,36.40527
2023-08-14T04:14:29.030Z,36.24512
2023-08-14T04:14:59.033Z,36.33008
2023-08-14T04:15:29.051Z,36.31445
2023-08-14T04:15:59.153Z,36.72266
2023-08-14T04:16:29.053Z,37.59766
2023-08-14T04:16:59.044Z,36.96777
2023-08-14T04:17:29.032Z,37.13086
2023-08-14T04:17:59.067Z,37.20313
2023-08-14T04:18:29.085Z,36.85352
2023-08-14T04:18:59.032Z,36.73828
2023-08-14T04:19:29.034Z,36.29004
2023-08-14T04:19:59.036Z,36.4082
2023-08-14T04:20:29.040Z,36.43945
2023-08-14T04:20:59.048Z,36.30371
2023-08-14T04:21:29.031Z,36.46875
2023-08-14T04:21:59.032Z,36.34473
2023-08-14T04:22:29.031Z,36.23145
2023-08-14T04:22:59.038Z,36.0293
2023-08-14T04:23:29.033Z,36.19434
2023-08-14T04:23:59.047Z,36.13672
2023-08-14T04:24:29.035Z,36.38086
2023-08-14T04:24:59.034Z,36.84668
2023-08-14T04:25:29.032Z,36.74609
2023-08-14T04:25:59.030Z,35.92383
2023-08-14T04:26:29.037Z,35.8584
2023-08-14T04:26:59.035Z,35.91406
2023-08-14T04:27:29.039Z,36.16016
2023-08-14T04:27:59.038Z,36.12793
2023-08-14T04:28:29.039Z,35.54883
2023-08-14T04:28:59.034Z,36.18262
2023-08-14T04:29:29.034Z,35.53613
2023-08-14T04:29:59.046Z,35.54688
2023-08-14T04:30:29.045Z,35.85742
2023-08-14T04:30:59.050Z,35.47852
2023-08-14T04:31:29.085Z,35.39941
2023-08-14T04:31:59.087Z,35.89844
2023-08-14T04:32:29.089Z,35.94141
2023-08-14T04:32:59.086Z,36.38672
2023-08-14T04:33:29.039Z,36.43066
2023-08-14T04:33:59.039Z,36.26367
2023-08-14T04:34:29.047Z,35.66309
2023-08-14T04:34:59.049Z,35.86133
2023-08-14T04:35:29.148Z,35.9502
2023-08-14T04:35:59.051Z,35.92578
2023-08-14T04:36:29.042Z,36.32715
2023-08-14T04:36:59.035Z,36.18164
2023-08-14T04:37:29.036Z,36.51465
2023-08-14T04:37:59.045Z,36.52441
2023-08-14T04:38:29.041Z,36.97754
2023-08-14T04:38:59.051Z,36.97656
2023-08-14T04:39:29.039Z,37.56348
2023-08-14T04:39:59.055Z,36.88379
2023-08-14T04:40:29.060Z,37.24902
2023-08-14T04:40:59.053Z,37.00293
2023-08-14T04:41:29.040Z,36.73535
2023-08-14T04:41:59.062Z,36.65723
2023-08-14T04:42:29.043Z,36.67969
2023-08-14T04:42:59.044Z,36.5459
2023-08-14T04:43:29.039Z,36.79199
2023-08-14T04:43:59.050Z,37.31445
2023-08-14T04:44:29.044Z,37.09082
2023-08-14T04:44:59.060Z,37.32324
2023-08-14T04:45:29.041Z,37.7793
2023-08-14T04:45:59.087Z,37.83594
2023-08-14T04:46:29.664Z,37.60254
2023-08-14T04:47:00.414Z,36.65723
2023-08-14T04:47:29.055Z,36.40039
2023-08-14T04:47:59.088Z,36.41113
2023-08-14T04:48:29.046Z,36.54395
2023-08-14T04:48:59.053Z,36.82227
2023-08-14T04:49:29.048Z,36.87598
2023-08-14T04:49:59.051Z,36.79785
2023-08-14T04:50:29.045Z,36.90723
2023-08-14T04:50:59.056Z,37.22949
2023-08-14T04:51:29.045Z,37.01758
2023-08-14T04:51:59.065Z,37.35254
2023-08-14T04:52:29.048Z,37.05273
2023-08-14T04:52:59.055Z,38.81934
2023-08-14T04:53:29.048Z,38.65039
2023-08-14T04:53:59.052Z,38.57129
2023-08-14T04:54:29.048Z,38.61523
2023-08-14T04:54:59.053Z,39.45996
2023-08-14T04:55:29.059Z,39.94824
2023-08-14T04:55:59.049Z,39.8252
2023-08-14T04:56:29.049Z,39.82422
2023-08-14T04:56:59.048Z,40.12305
2023-08-14T04:57:29.053Z,39.78809
2023-08-14T04:57:59.056Z,39.85254
2023-08-14T04:58:29.060Z,40.40625
2023-08-14T04:58:59.055Z,40.39453
2023-08-14T04:59:29.053Z,40.5498
2023-08-14T04:59:59.050Z,40.99414
2023-08-14T05:00:29.097Z,41.04883
2023-08-14T05:00:59.055Z,40.84766
2023-08-14T05:01:29.093Z,41.15918
2023-08-14T05:01:59.096Z,41.70313
2023-08-14T05:02:29.105Z,40.96875
2023-08-14T05:02:59.153Z,40.26953
2023-08-14T05:03:29.058Z,41.8125
2023-08-14T05:03:59.052Z,41.53516
2023-08-14T05:04:29.067Z,41.69043
2023-08-14T05:04:59.160Z,41.21289
2023-08-14T05:05:29.065Z,41.38965
2023-08-14T05:05:59.059Z,41.77539
2023-08-14T05:06:29.058Z,41.98242
2023-08-14T05:06:59.055Z,41.91406
2023-08-14T05:07:29.053Z,42.1123
2023-08-14T05:07:59.062Z,41.96582
2023-08-14T05:08:29.052Z,42.57422
2023-08-14T05:09:00.456Z,42.09766
2023-08-14T05:09:30.251Z,41.75391
2023-08-14T05:09:59.071Z,41.7334
2023-08-14T05:10:29.062Z,40.33594
2023-08-14T05:10:59.052Z,39.9834
2023-08-14T05:11:29.076Z,40.76367
2023-08-14T05:11:59.086Z,41.73145
2023-08-14T05:12:29.079Z,41.82422
2023-08-14T05:12:59.074Z,42.03613
2023-08-14T05:13:29.055Z,42.0918
2023-08-14T05:13:59.070Z,42.69922
2023-08-14T05:14:29.065Z,42.91797
2023-08-14T05:14:59.057Z,43.33789
2023-08-14T05:15:29.054Z,43.19238
2023-08-14T05:16:07.056Z,42.3457
2023-08-14T05:16:30.200Z,42.27734
2023-08-14T05:16:59.063Z,42.42188
2023-08-14T05:17:29.113Z,42.50098
2023-08-14T05:17:59.094Z,42.74512
2023-08-14T05:18:29.056Z,42.91504
2023-08-14T05:18:59.058Z,43.66895
2023-08-14T05:19:29.063Z,44.02148
2023-08-14T05:19:59.063Z,45.79297
2023-08-14T05:20:29.076Z,46.30273
2023-08-14T05:20:59.067Z,46.34668
2023-08-14T05:21:29.058Z,47.2998
2023-08-14T05:21:59.060Z,47.0332
2023-08-14T05:22:29.062Z,46.96484
2023-08-14T05:22:59.059Z,46.98535
2023-08-14T05:23:29.068Z,47.14941
2023-08-14T05:23:59.077Z,47.27148
2023-08-14T05:24:29.063Z,47.92383
2023-08-14T05:24:59.058Z,47.80078
2023-08-14T05:25:29.063Z,46.81445
2023-08-14T05:25:59.058Z,47.69922
2023-08-14T05:26:29.068Z,47.0332
2023-08-14T05:26:59.058Z,46.625
2023-08-14T05:27:29.064Z,47.04688
2023-08-14T05:27:59.060Z,47.10352
2023-08-14T05:28:29.117Z,47.22656
2023-08-14T05:28:59.096Z,47.30566
2023-08-14T05:29:29.062Z,47.70605
2023-08-14T05:29:59.058Z,47.75293
2023-08-14T05:30:29.099Z,48.04199
2023-08-14T05:30:59.063Z,48.60742
2023-08-14T05:31:29.154Z,49.75879
2023-08-14T05:31:59.076Z,48.69336
2023-08-14T05:32:29.087Z,49
2023-08-14T05:32:59.156Z,49.41895
2023-08-14T05:33:29.064Z,49.99219
2023-08-14T05:33:59.070Z,51.4541
2023-08-14T05:34:29.069Z,50.51465
2023-08-14T05:34:59.073Z,50.68262
2023-08-14T05:35:29.070Z,50.51855
2023-08-14T05:35:59.069Z,51.03906
2023-08-14T05:36:29.066Z,51.12695
2023-08-14T05:36:59.075Z,51.37207
2023-08-14T05:37:29.073Z,51.96973
2023-08-14T05:37:59.077Z,52.75684
2023-08-14T05:38:29.064Z,52.26074
2023-08-14T05:38:59.069Z,52.69434
2023-08-14T05:39:29.074Z,52.20508
2023-08-14T05:39:59.079Z,50.66113
2023-08-14T05:40:29.080Z,51.14063
2023-08-14T05:40:59.072Z,52.41895
2023-08-14T05:41:29.071Z,53.63184
2023-08-14T05:41:59.072Z,49.09082
2023-08-14T05:42:29.075Z,50.74512
2023-08-14T05:42:59.079Z,52.37891
2023-08-14T05:43:29.074Z,53.55566
2023-08-14T05:43:59.075Z,54.76172
2023-08-14T05:44:29.065Z,55.58008
2023-08-14T05:44:59.069Z,56.125
2023-08-14T05:45:29.153Z,56.48535
2023-08-14T05:45:59.116Z,56.75391
2023-08-14T05:46:29.072Z,56.6377
2023-08-14T05:46:59.082Z,56.42383
2023-08-14T05:47:29.085Z,57.15918
2023-08-14T05:47:59.091Z,57.14941
2023-08-14T05:48:29.070Z,57.33887
2023-08-14T05:48:59.091Z,56.27051
2023-08-14T05:49:29.075Z,56.60254
2023-08-14T05:49:59.112Z,56.48438
2023-08-14T05:50:29.074Z,56.66699
2023-08-14T05:50:59.095Z,55.74805
2023-08-14T05:51:29.073Z,56.64941
2023-08-14T05:51:59.070Z,55.61914
2023-08-14T05:52:29.109Z,54.50977
2023-08-14T05:52:59.073Z,54.42676
2023-08-14T05:53:29.081Z,53.78027
2023-08-14T05:53:59.092Z,53.72949